NO-0019 weather

Bjorli Airfield
Lesja, Oppland, Norway

Public forecast

Using degrees Celsius for public forecast. Weather courtesy of forecast.io.

METAR (pilot weather report)

Closest report is Molde Airport, 41.0 nm (75.9 km) NW. Retrieved 2019/09/17 05:20 UTC (0 seconds ago):

ENML 170520Z 27007KT 230V300 9999 FEW020 SCT062 05/03 Q1005

TAF (pilot weather forecast)

Forecast is more than 12 hours old.

Closest forecast is Molde Airport, 41.0 nm (75.9 km) NW. Retrieved 2011/03/08 08:45 UTC (9 years ago):

TAF TAF ESDF 0808 FCNO33 ENMI 080800 RRC TAF ENML 080800Z 0809/0818 21015KT 9999 FEW030 BKN050 TEMPO 0809/0818 21022G35KT BECMG 0815/0818 21022G35KT TEMPO 0815/0818 4000 RADZ BKN012